Time;durP1;ratioP1;P1;durP2;ratioP2;P2;SDS_P1;SDS_P2;PMS_P1;PMS_P2;Temp;Humidity;BMP_temperature;BMP_pressure;BME280_temperature;BME280_humidity;BME280_pressure;Samples;Min_cycle;Max_cycle;Signal;HPM_P1;HPM_P2
2022/09/16 00:01:17;;;;;;;1.75;1.22;;;;;;;18.95;100.00;98211.74;1736212;81;21502;-60
2022/09/16 00:03:44;;;;;;;1.50;1.40;;;;;;;18.85;100.00;98202.52;1720595;81;21504;-59
2022/09/16 00:06:21;;;;;;;1.10;1.10;;;;;;;18.82;100.00;98208.16;1736912;81;21802;-60
2022/09/16 00:08:48;;;;;;;2.55;1.27;;;;;;;18.83;100.00;98205.83;1727155;81;21410;-60
2022/09/16 00:11:17;;;;;;;1.70;1.50;;;;;;;18.74;100.00;98203.58;1727748;80;21501;-60
2022/09/16 00:13:44;;;;;;;;;;;;;;;18.68;100.00;98192.18;1737755;81;21052;-60
2022/09/16 00:16:21;;;;;;;2.90;1.30;;;;;;;18.63;100.00;98189.99;1724383;81;20138;-59
2022/09/16 00:18:47;;;;;;;2.00;1.60;;;;;;;18.66;100.00;98190.17;1730586;81;21809;-60
2022/09/16 00:21:14;;;;;;;1.60;1.50;;;;;;;18.60;100.00;98193.45;1726318;81;21101;-60
2022/09/16 00:23:40;;;;;;;1.92;1.40;;;;;;;18.59;100.00;98187.77;1729234;81;21536;-60
2022/09/16 00:26:07;;;;;;;1.40;1.30;;;;;;;18.57;100.00;98181.77;1724844;81;21540;-60
2022/09/16 00:28:33;;;;;;;1.20;1.10;;;;;;;18.66;100.00;98184.84;1729095;81;21544;-59
2022/09/16 00:31:01;;;;;;;2.27;1.37;;;;;;;18.67;100.00;98179.37;1726375;81;21853;-61
2022/09/16 00:33:28;;;;;;;2.20;1.70;;;;;;;18.72;100.00;98182.89;1730930;81;21517;-60
2022/09/16 00:36:12;;;;;;;1.40;1.22;;;;;;;18.77;100.00;98189.11;1725929;81;21536;-60
2022/09/16 00:38:39;;;;;;;2.25;1.25;;;;;;;18.77;100.00;98197.09;1724196;81;21076;-60
2022/09/16 00:41:07;;;;;;;1.47;1.30;;;;;;;18.80;100.00;98199.47;1727149;81;20972;-60
2022/09/16 00:43:56;;;;;;;1.20;1.17;;;;;;;18.81;100.00;98199.31;1735814;81;21897;-60
2022/09/16 00:46:45;;;;;;;3.45;1.60;;;;;;;18.78;100.00;98200.08;1732093;81;21545;-60
2022/09/16 00:49:20;;;;;;;1.70;1.55;;;;;;;18.74;100.00;98202.72;1715820;82;21514;-61
2022/09/16 00:51:48;;;;;;;1.62;1.52;;;;;;;18.68;100.00;98212.14;1721486;82;21447;-60
2022/09/16 00:54:16;;;;;;;2.58;1.27;;;;;;;18.64;100.00;98213.45;1727241;81;21639;-60
2022/09/16 00:56:44;;;;;;;1.57;1.37;;;;;;;18.61;100.00;98220.39;1723408;81;21545;-59
2022/09/16 00:59:21;;;;;;;1.40;1.40;;;;;;;18.58;100.00;98224.70;1719780;81;27226;-59
2022/09/16 01:01:47;;;;;;;1.40;1.30;;;;;;;18.57;100.00;98234.52;1715659;82;21435;-60
2022/09/16 01:04:20;;;;;;;2.35;1.45;;;;;;;18.51;100.00;98234.27;1720304;81;21526;-60
2022/09/16 01:06:47;;;;;;;2.22;1.62;;;;;;;18.54;100.00;98236.14;1723071;81;21473;-60
2022/09/16 01:09:15;;;;;;;1.50;1.42;;;;;;;18.55;100.00;98228.48;1711933;81;21899;-60
2022/09/16 01:11:41;;;;;;;1.77;1.67;;;;;;;18.49;100.00;98235.25;1711163;82;21588;-60
2022/09/16 01:17:16;;;;;;;2.45;1.70;;;;;;;18.37;100.00;98235.63;1716921;82;21529;-59
2022/09/16 01:19:58;;;;;;;1.80;1.70;;;;;;;18.41;100.00;98234.34;1722090;82;21542;-59
2022/09/16 01:23:19;;;;;;;1.65;1.55;;;;;;;18.37;100.00;98231.14;1705374;82;21781;-60
2022/09/16 01:26:40;;;;;;;1.55;1.45;;;;;;;18.36;100.00;98230.78;1715500;82;21545;-60
2022/09/16 01:29:35;;;;;;;2.45;1.62;;;;;;;18.36;100.00;98228.62;1726072;81;21580;-59
2022/09/16 01:32:44;;;;;;;1.50;1.40;;;;;;;18.31;100.00;98229.55;1717612;82;21407;-60
2022/09/16 01:35:28;;;;;;;2.37;1.92;;;;;;;18.24;100.00;98238.14;1721251;82;21494;-61
2022/09/16 01:38:18;;;;;;;1.50;1.32;;;;;;;18.25;100.00;98241.16;1719127;81;22048;-59
2022/09/16 01:41:11;;;;;;;1.62;1.52;;;;;;;18.28;100.00;98243.50;1718314;81;21609;-59
2022/09/16 01:44:07;;;;;;;3.50;1.90;;;;;;;18.29;100.00;98238.54;1718181;81;21596;-59
2022/09/16 01:46:46;;;;;;;2.70;1.50;;;;;;;18.33;100.00;98248.39;1717724;82;20989;-59
2022/09/16 01:49:20;;;;;;;1.47;1.37;;;;;;;18.32;100.00;98241.89;1705205;82;21423;-61
2022/09/16 01:52:09;;;;;;;2.02;1.82;;;;;;;18.36;100.00;98234.77;1720833;81;21796;-59
2022/09/16 01:54:44;;;;;;;3.15;1.95;;;;;;;18.34;100.00;98242.07;1690917;82;21497;-59
2022/09/16 01:57:31;;;;;;;1.72;1.47;;;;;;;18.34;100.00;98242.07;1717467;81;20956;-59
2022/09/16 02:00:09;;;;;;;1.80;1.67;;;;;;;18.40;100.00;98247.29;1703792;81;27235;-59
2022/09/16 02:03:10;;;;;;;5.33;1.65;;;;;;;18.38;100.00;98242.11;1721470;81;21497;-59
2022/09/16 02:05:54;;;;;;;2.50;1.70;;;;;;;18.35;100.00;98242.42;1658553;85;21752;-60
2022/09/16 02:08:33;;;;;;;1.98;1.62;;;;;;;18.37;100.00;98249.77;1657776;84;21526;-59
2022/09/16 02:11:02;;;;;;;2.58;1.70;;;;;;;18.38;100.00;98242.11;1647212;85;21057;-60
2022/09/16 02:13:37;;;;;;;2.22;2.12;;;;;;;18.47;100.00;98245.71;1655290;84;21623;-59
2022/09/16 02:16:09;;;;;;;4.78;2.00;;;;;;;18.54;100.00;98240.64;1634042;85;21577;-60
2022/09/16 02:18:38;;;;;;;2.50;1.87;;;;;;;18.57;100.00;98236.33;1664403;85;21554;-60
2022/09/16 02:21:08;;;;;;;3.27;2.10;;;;;;;18.63;100.00;98237.91;1658436;85;21504;-60
2022/09/16 02:23:41;;;;;;;3.50;2.10;;;;;;;18.59;100.00;98241.86;1662885;84;21575;-60
2022/09/16 02:26:10;;;;;;;3.80;2.17;;;;;;;18.58;100.00;98243.34;1653585;85;21416;-59
2022/09/16 02:28:38;;;;;;;2.40;2.20;;;;;;;18.54;100.00;98242.80;1655406;85;22616;-60
2022/09/16 02:31:08;;;;;;;2.35;1.77;;;;;;;18.50;100.00;98241.42;1660337;85;21666;-59
2022/09/16 02:33:49;;;;;;;3.20;2.33;;;;;;;18.54;100.00;98244.12;1656399;85;21534;-59
2022/09/16 02:36:19;;;;;;;2.10;2.00;;;;;;;18.53;100.00;98241.61;1660532;83;21528;-60
2022/09/16 02:38:50;;;;;;;2.20;2.10;;;;;;;18.51;100.00;98241.75;1658491;85;21128;-59
2022/09/16 02:41:17;;;;;;;2.40;2.20;;;;;;;18.52;100.00;98247.44;1666812;85;21541;-60
2022/09/16 02:43:44;;;;;;;3.52;2.47;;;;;;;18.53;100.00;98240.28;1657183;85;22196;-60
2022/09/16 02:46:29;;;;;;;2.30;2.12;;;;;;;18.53;100.00;98246.94;1663528;84;21440;-60
2022/09/16 02:49:02;;;;;;;2.70;2.50;;;;;;;18.47;100.00;98247.04;1653708;84;21001;-60
2022/09/16 02:51:53;;;;;;;2.35;2.20;;;;;;;18.41;100.00;98243.16;1654195;85;21613;-60
2022/09/16 02:54:26;;;;;;;4.65;2.77;;;;;;;18.43;100.00;98246.50;1642272;85;21604;-59
2022/09/16 02:56:53;;;;;;;2.80;2.60;;;;;;;18.45;100.00;98238.38;1656857;84;21821;-60
2022/09/16 02:59:20;;;;;;;2.62;2.42;;;;;;;18.45;100.00;98236.54;1656900;84;21641;-59
2022/09/16 03:01:46;;;;;;;6.65;2.65;;;;;;;18.46;100.00;98242.72;1663216;85;21593;-59
2022/09/16 03:04:17;;;;;;;2.80;2.60;;;;;;;18.51;100.00;98244.92;1651550;85;21898;-60
2022/09/16 03:06:44;;;;;;;3.33;2.37;;;;;;;18.54;100.00;98245.46;1654609;85;21568;-59
2022/09/16 03:09:15;;;;;;;2.30;2.10;;;;;;;18.52;100.00;98243.44;1658914;85;21849;-60
2022/09/16 03:12:15;;;;;;;2.85;2.55;;;;;;;18.54;100.00;98248.13;1658855;85;21662;-60
2022/09/16 03:15:00;;;;;;;3.22;2.27;;;;;;;18.54;100.00;98248.63;1644684;85;21487;-60
2022/09/16 03:18:11;;;;;;;2.80;2.60;;;;;;;18.49;100.00;98255.70;1620324;85;21538;-63
2022/09/16 03:21:07;;;;;;;2.90;2.60;;;;;;;18.42;100.00;98252.83;1639118;85;21574;-60
2022/09/16 03:24:00;;;;;;;2.73;2.53;;;;;;;18.39;100.00;98250.95;1649205;85;21814;-60
2022/09/16 03:26:51;;;;;;;4.58;2.55;;;;;;;18.39;100.00;98257.61;1649325;85;21601;-60
2022/09/16 03:29:31;;;;;;;3.15;2.37;;;;;;;18.37;100.00;98252.93;1662490;85;21068;-60
2022/09/16 03:32:14;;;;;;;4.45;2.12;;;;;;;18.32;100.00;98244.55;1648944;85;21115;-60
2022/09/16 03:34:51;;;;;;;3.90;2.42;;;;;;;18.32;100.00;98244.05;1641150;85;21576;-60
2022/09/16 03:37:18;;;;;;;3.33;2.85;;;;;;;18.27;100.00;98249.83;1655869;85;21800;-60
2022/09/16 03:39:52;;;;;;;3.47;2.33;;;;;;;18.25;100.00;98246.95;1650561;85;21505;-60
2022/09/16 03:42:19;;;;;;;2.33;2.22;;;;;;;18.19;100.00;98255.53;1656743;85;20980;-59
2022/09/16 03:44:47;;;;;;;2.92;2.52;;;;;;;18.21;100.00;98254.89;1654366;85;21531;-60
2022/09/16 03:47:13;;;;;;;5.55;2.58;;;;;;;18.22;100.00;98258.73;1652536;85;21639;-60
2022/09/16 03:49:40;;;;;;;3.23;2.70;;;;;;;18.18;100.00;98260.52;1648402;85;21719;-59
2022/09/16 03:52:07;;;;;;;2.75;2.50;;;;;;;18.09;100.00;98264.39;1647526;85;21494;-60
2022/09/16 03:54:35;;;;;;;4.37;2.60;;;;;;;18.04;100.00;98269.80;1647799;85;21022;-60
2022/09/16 03:57:01;;;;;;;3.87;3.17;;;;;;;18.02;100.00;98273.11;1653578;85;21088;-60
2022/09/16 03:59:28;;;;;;;3.87;3.22;;;;;;;18.00;100.00;98277.73;1657945;85;21628;-59
2022/09/16 04:01:55;;;;;;;3.05;2.70;;;;;;;17.95;100.00;98285.30;1660251;85;21842;-60
2022/09/16 04:04:22;;;;;;;2.87;2.42;;;;;;;17.89;100.00;98286.72;1650954;84;21544;-60
2022/09/16 04:06:48;;;;;;;4.60;2.40;;;;;;;17.88;100.00;98289.05;1670667;84;21666;-60
2022/09/16 04:09:15;;;;;;;3.60;3.15;;;;;;;17.86;100.00;98280.39;1672832;84;21567;-64
2022/09/16 04:11:42;;;;;;;2.80;2.60;;;;;;;17.79;100.00;98289.38;1671759;84;21493;-60
2022/09/16 04:14:09;;;;;;;3.67;2.75;;;;;;;17.71;100.00;98290.61;1670665;84;21510;-60
2022/09/16 04:16:37;;;;;;;3.95;2.50;;;;;;;17.63;100.00;98289.14;1671164;84;21546;-60
2022/09/16 04:19:03;;;;;;;3.22;2.90;;;;;;;17.62;100.00;98295.45;1663399;84;21509;-59
2022/09/16 04:21:30;;;;;;;2.90;2.70;;;;;;;17.54;100.00;98305.47;1659576;84;21612;-60
2022/09/16 04:23:57;;;;;;;2.95;2.70;;;;;;;17.46;100.00;98307.98;1663547;84;21542;-62
2022/09/16 04:26:23;;;;;;;16.55;2.98;;;;;;;17.41;100.00;98307.59;1661784;84;21796;-60
2022/09/16 04:28:53;;;;;;;3.65;3.35;;;;;;;17.38;100.00;98302.55;1678427;84;21572;-61
2022/09/16 04:31:20;;;;;;;3.05;2.85;;;;;;;17.32;100.00;98303.95;1671805;84;21619;-62
2022/09/16 04:33:47;;;;;;;3.42;2.77;;;;;;;17.28;100.00;98299.91;1661945;84;21592;-61
2022/09/16 04:36:17;;;;;;;4.55;3.20;;;;;;;17.28;100.00;98291.94;1659841;84;21078;-61
2022/09/16 04:40:23;;;;;;;3.87;2.50;;;;;;;16.70;100.00;98313.45;1781291;79;23133;-61
2022/09/16 04:42:50;;;;;;;4.90;2.73;;;;;;;17.26;100.00;98301.87;1741282;80;21585;-61
2022/09/16 04:45:17;;;;;;;3.15;2.67;;;;;;;17.35;100.00;98302.34;1738062;80;22256;-61
2022/09/16 04:47:44;;;;;;;2.67;2.47;;;;;;;17.39;100.00;98305.06;1724723;80;21566;-61
2022/09/16 04:50:11;;;;;;;4.60;2.98;;;;;;;17.40;100.00;98313.87;1740844;81;21443;-61
2022/09/16 04:52:37;;;;;;;3.00;2.70;;;;;;;17.41;100.00;98316.39;1745013;80;21377;-61
2022/09/16 04:55:05;;;;;;;2.67;2.47;;;;;;;17.35;100.00;98324.06;1731763;80;21040;-61
2022/09/16 04:57:31;;;;;;;2.90;2.70;;;;;;;17.34;100.00;98335.20;1737580;80;21942;-61
2022/09/16 04:59:58;;;;;;;3.08;2.87;;;;;;;17.32;100.00;98341.97;1679643;83;21548;-61
2022/09/16 05:02:25;;;;;;;4.62;2.90;;;;;;;17.26;100.00;98345.69;1698785;83;21519;-61
2022/09/16 05:04:51;;;;;;;3.12;2.70;;;;;;;17.21;100.00;98349.25;1696892;83;21580;-61
2022/09/16 05:07:18;;;;;;;2.77;2.58;;;;;;;17.13;100.00;98337.50;1704404;83;21660;-61
2022/09/16 05:09:45;;;;;;;3.02;2.67;;;;;;;17.19;100.00;98341.91;1701995;83;21771;-61
2022/09/16 05:12:12;;;;;;;3.02;2.83;;;;;;;17.21;100.00;98346.59;1698718;83;21482;-61
2022/09/16 05:14:38;;;;;;;7.22;2.62;;;;;;;17.17;100.00;98336.73;1703544;83;21636;-60
2022/09/16 05:17:06;;;;;;;3.17;2.52;;;;;;;17.17;100.00;98343.87;1700949;83;21158;-61
2022/09/16 05:19:33;;;;;;;3.20;2.80;;;;;;;17.18;100.00;98345.53;1698801;83;21612;-61
2022/09/16 05:22:05;;;;;;;3.27;3.05;;;;;;;17.20;100.00;98341.77;1692775;83;21766;-61
2022/09/16 05:24:30;;;;;;;5.92;2.98;;;;;;;17.23;100.00;98352.09;1675418;83;21502;-60
2022/09/16 05:26:56;;;;;;;;;;;;;;;17.22;100.00;98350.44;1647437;84;21575;-60
2022/09/16 05:29:23;;;;;;;3.00;2.67;;;;;;;17.22;100.00;98354.42;1695364;82;20430;-60
2022/09/16 05:31:49;;;;;;;3.40;3.20;;;;;;;17.26;100.00;98347.85;1685580;84;21415;-61
2022/09/16 05:34:20;;;;;;;3.05;2.72;;;;;;;17.31;100.00;98354.09;1707246;81;21750;-60
2022/09/16 05:36:48;;;;;;;4.10;3.75;;;;;;;17.32;100.00;98356.58;1697463;83;21511;-62
2022/09/16 05:39:19;;;;;;;3.37;3.17;;;;;;;17.35;100.00;98355.48;1699864;83;21064;-60
2022/09/16 05:41:48;;;;;;;3.00;2.80;;;;;;;17.36;100.00;98364.28;1691848;83;21451;-61
2022/09/16 05:44:14;;;;;;;3.15;2.95;;;;;;;17.42;100.00;98361.92;1690469;83;21557;-61
2022/09/16 05:46:42;;;;;;;4.85;3.10;;;;;;;17.50;100.00;98360.72;1682532;83;22115;-59
2022/09/16 05:49:09;;;;;;;3.65;2.85;;;;;;;17.54;100.00;98359.95;1690577;83;21037;-60
2022/09/16 05:51:37;;;;;;;4.50;3.17;;;;;;;17.61;100.00;98358.88;1690709;83;21514;-61
2022/09/16 05:54:04;;;;;;;3.50;3.20;;;;;;;17.66;100.00;98353.98;1727965;80;21603;-60
2022/09/16 05:56:31;;;;;;;4.62;3.05;;;;;;;17.77;100.00;98352.49;1720781;80;21447;-60
2022/09/16 05:58:59;;;;;;;3.20;3.00;;;;;;;17.88;100.00;98359.01;1719805;81;21815;-60
2022/09/16 06:01:30;;;;;;;3.25;3.05;;;;;;;17.96;100.00;98354.80;1724656;80;21566;-60
2022/09/16 06:03:56;;;;;;;4.55;4.10;;;;;;;18.05;100.00;98349.45;1723480;80;21498;-60
2022/09/16 06:06:35;;;;;;;4.12;3.75;;;;;;;18.06;100.00;98356.45;1724601;80;21554;-61
2022/09/16 06:09:11;;;;;;;4.12;3.60;;;;;;;18.07;100.00;98360.77;1715843;80;21412;-61
2022/09/16 06:11:44;;;;;;;5.28;3.72;;;;;;;18.13;100.00;98361.19;1723674;80;21797;-61
2022/09/16 06:14:11;;;;;;;5.58;3.90;;;;;;;18.16;100.00;98363.54;1729946;80;21685;-63
2022/09/16 06:16:39;;;;;;;4.00;3.70;;;;;;;18.24;100.00;98358.35;1724286;80;21554;-61
2022/09/16 06:19:09;;;;;;;6.20;3.85;;;;;;;18.28;100.00;98361.89;1721280;80;21498;-62
2022/09/16 06:21:36;;;;;;;3.90;3.60;;;;;;;18.29;100.00;98365.41;1728078;80;21573;-61
2022/09/16 06:24:07;;;;;;;4.45;4.15;;;;;;;18.33;100.00;98360.61;1727941;82;21722;-59
2022/09/16 06:26:32;;;;;;;4.33;4.03;;;;;;;18.35;100.00;98363.99;1722577;80;21661;-60
2022/09/16 06:28:59;;;;;;;4.47;4.08;;;;;;;18.41;100.00;98364.73;1718241;81;21041;-59
2022/09/16 06:31:26;;;;;;;3.67;3.40;;;;;;;18.48;100.00;98367.98;1720703;81;21070;-59
2022/09/16 06:33:54;;;;;;;4.40;4.00;;;;;;;18.54;100.00;98365.23;1691349;84;21519;-59
2022/09/16 06:36:25;;;;;;;4.43;4.13;;;;;;;18.53;100.00;98374.18;1686984;84;21863;-60
2022/09/16 06:38:52;;;;;;;4.55;4.08;;;;;;;18.54;100.00;98372.38;1693466;82;21526;-62
2022/09/16 06:41:19;;;;;;;4.28;3.90;;;;;;;18.62;100.00;98375.13;1688896;84;21469;-60
2022/09/16 06:43:46;;;;;;;4.40;3.98;;;;;;;18.64;100.00;98370.50;1716343;81;21598;-60
2022/09/16 06:46:15;;;;;;;4.45;4.12;;;;;;;18.63;100.00;98372.33;1722450;80;20998;-62
2022/09/16 06:48:49;;;;;;;5.92;4.08;;;;;;;18.73;100.00;98374.11;1723900;81;21931;-61
2022/09/16 06:51:20;;;;;;;4.55;4.15;;;;;;;18.81;100.00;98371.56;1727456;80;21615;-60
2022/09/16 06:53:46;;;;;;;4.92;4.62;;;;;;;18.96;100.00;98373.23;1722773;80;21598;-60
2022/09/16 06:56:16;;;;;;;4.92;4.42;;;;;;;18.96;100.00;98373.23;1719074;80;21583;-60
2022/09/16 06:58:50;;;;;;;5.25;4.12;;;;;;;19.07;100.00;98382.33;1719754;82;21539;-60
2022/09/16 07:01:17;;;;;;;4.20;3.90;;;;;;;19.15;100.00;98386.41;1686607;84;21831;-60
2022/09/16 07:03:47;;;;;;;5.08;4.60;;;;;;;19.18;100.00;98382.62;1728499;80;21428;-61
2022/09/16 07:06:15;;;;;;;5.30;4.83;;;;;;;19.20;100.00;98385.97;1718322;80;21559;-59
2022/09/16 07:08:42;;;;;;;4.33;4.03;;;;;;;19.19;100.00;98390.94;1718578;80;28663;-59
2022/09/16 07:11:15;;;;;;;5.00;4.53;;;;;;;19.17;100.00;98400.91;1739507;80;20980;-60
2022/09/16 07:13:42;;;;;;;4.15;3.85;;;;;;;19.11;100.00;98404.19;1727554;80;21855;-61
2022/09/16 07:16:13;;;;;;;4.45;4.12;;;;;;;19.03;100.00;98411.59;1724897;80;21590;-60
2022/09/16 07:18:41;;;;;;;4.95;4.50;;;;;;;18.99;100.00;98421.70;1722473;80;21432;-60
2022/09/16 07:21:15;;;;;;;4.92;4.42;;;;;;;18.98;100.00;98422.68;1694031;82;21547;-60
2022/09/16 07:23:42;;;;;;;4.42;4.00;;;;;;;18.96;100.00;98423.33;1714088;80;21600;-60
2022/09/16 07:26:16;;;;;;;4.93;4.53;;;;;;;19.02;100.00;98426.75;1715813;80;21994;-61
2022/09/16 07:28:45;;;;;;;4.40;4.00;;;;;;;19.11;100.00;98417.50;1730532;80;21589;-61
2022/09/16 07:31:18;;;;;;;4.42;4.05;;;;;;;19.13;100.00;98418.19;1722894;80;20946;-60
2022/09/16 07:33:47;;;;;;;4.50;4.10;;;;;;;19.18;100.00;98421.25;1736895;80;21518;-61
2022/09/16 07:36:17;;;;;;;4.47;4.08;;;;;;;19.37;100.00;98412.28;1726249;80;21571;-60
2022/09/16 07:38:44;;;;;;;5.20;3.90;;;;;;;19.37;100.00;98412.28;1715977;80;21848;-61
2022/09/16 07:41:14;;;;;;;9.85;4.55;;;;;;;19.45;100.00;98403.02;1723790;81;20998;-61
2022/09/16 07:43:42;;;;;;;5.65;4.25;;;;;;;19.51;100.00;98409.57;1727665;81;21395;-62
2022/09/16 07:46:10;;;;;;;4.40;4.10;;;;;;;19.54;100.00;98403.95;1685019;83;21516;-60
2022/09/16 07:48:37;;;;;;;4.53;4.12;;;;;;;19.69;100.00;98409.08;1685054;83;21510;-61
2022/09/16 07:51:09;;;;;;;5.65;3.98;;;;;;;19.76;100.00;98402.17;1687151;83;21824;-60
2022/09/16 07:53:36;;;;;;;4.87;4.47;;;;;;;19.86;100.00;98401.25;1691165;83;21680;-61
2022/09/16 07:56:09;;;;;;;5.72;3.98;;;;;;;20.00;100.00;98398.86;1691219;83;21478;-60
2022/09/16 07:58:37;;;;;;;4.03;3.72;;;;;;;20.01;100.00;98401.84;1685201;83;21564;-60
2022/09/16 08:01:06;;;;;;;4.17;3.87;;;;;;;20.20;100.00;98406.14;1734762;80;21487;-60
2022/09/16 08:03:34;;;;;;;4.75;3.58;;;;;;;20.20;100.00;98406.14;1729597;80;21879;-59
2022/09/16 08:06:04;;;;;;;4.05;3.65;;;;;;;20.25;100.00;98409.69;1732955;80;21503;-59
2022/09/16 08:08:31;;;;;;;3.52;3.22;;;;;;;20.22;100.00;98409.48;1726013;80;21456;-60
2022/09/16 08:10:59;;;;;;;4.03;3.60;;;;;;;20.30;100.00;98405.20;1724992;81;21541;-60
2022/09/16 08:13:28;;;;;;;3.27;2.98;;;;;;;20.30;100.00;98405.20;1726513;81;20953;-60
2022/09/16 08:16:03;;;;;;;4.08;3.17;;;;;;;20.31;100.00;98406.89;1726089;81;21838;-60
2022/09/16 08:18:30;;;;;;;3.77;3.40;;;;;;;20.34;100.00;98403.88;1727733;80;21531;-60
2022/09/16 08:20:56;;;;;;;3.08;2.87;;;;;;;20.41;100.00;98397.75;1692561;83;21499;-60
2022/09/16 08:23:24;;;;;;;5.65;3.02;;;;;;;20.54;100.00;98389.81;1728711;81;21609;-60
2022/09/16 08:25:57;;;;;;;4.12;3.75;;;;;;;20.64;100.00;98393.22;1725778;81;21515;-60
2022/09/16 08:28:24;;;;;;;4.05;3.65;;;;;;;20.71;100.00;98382.74;1682599;83;21832;-60
2022/09/16 08:30:50;;;;;;;3.98;3.67;;;;;;;20.78;100.00;98385.94;1684535;82;21391;-59
2022/09/16 08:33:20;;;;;;;3.40;3.20;;;;;;;20.80;100.00;98381.78;1732183;82;21487;-60
2022/09/16 08:35:49;;;;;;;4.22;3.15;;;;;;;20.90;100.00;98377.63;1736938;80;21553;-60
2022/09/16 08:38:15;;;;;;;3.17;2.98;;;;;;;21.03;100.00;98382.01;1721885;81;21523;-61
2022/09/16 08:40:43;;;;;;;3.40;3.10;;;;;;;21.07;100.00;98375.84;1725903;80;21848;-62
2022/09/16 08:43:24;;;;;;;3.40;3.10;;;;;;;21.18;100.00;98378.20;1681496;84;21506;-59
2022/09/16 08:45:59;;;;;;;3.55;3.25;;;;;;;21.20;100.00;98370.34;1680624;83;21508;-60
2022/09/16 08:48:41;;;;;;;3.37;2.92;;;;;;;21.34;100.00;98364.02;1720402;80;21545;-60
2022/09/16 08:51:10;;;;;;;3.25;3.05;;;;;;;21.41;100.00;98361.02;1687222;84;21661;-60
2022/09/16 08:53:59;;;;;;;3.20;2.90;;;;;;;21.43;100.00;98373.72;1688088;84;21881;-60
2022/09/16 08:56:28;;;;;;;4.15;2.70;;;;;;;21.47;100.00;98369.73;1724316;80;21905;-61
2022/09/16 08:58:59;;;;;;;3.35;3.08;;;;;;;21.63;100.00;98366.76;1728844;80;21148;-60
2022/09/16 09:01:54;;;;;;;2.65;2.45;;;;;;;21.65;100.00;98369.59;1715729;80;21614;-60
2022/09/16 09:04:21;;;;;;;3.15;2.85;;;;;;;21.76;100.00;98370.59;1730208;80;21819;-60
2022/09/16 09:07:10;;;;;;;2.77;2.58;;;;;;;22.00;100.00;98364.89;1725280;80;21804;-59
2022/09/16 09:09:47;;;;;;;;;;;;;;;22.00;100.00;98364.89;1731540;80;21562;-61
2022/09/16 09:12:36;;;;;;;;;;;;;;;22.12;97.81;98364.02;1725630;80;20152;-61
2022/09/16 09:15:32;;;;;;;4.83;2.33;;;;;;;22.07;100.00;98377.07;1691487;82;20563;-60
2022/09/16 09:18:13;;;;;;;2.37;2.15;;;;;;;22.07;100.00;98377.07;1686316;84;21601;-61
2022/09/16 09:21:30;;;;;;;2.55;2.27;;;;;;;22.08;100.00;98374.75;1688872;82;21842;-60
2022/09/16 09:24:35;;;;;;;3.95;2.15;;;;;;;22.11;100.00;98373.91;1689407;82;21647;-59
2022/09/16 09:27:38;;;;;;;3.33;2.67;;;;;;;22.22;98.63;98363.83;1692983;84;21596;-62
2022/09/16 09:30:26;;;;;;;2.62;2.42;;;;;;;22.48;98.19;98360.42;1726040;81;21515;-61
2022/09/16 09:33:34;;;;;;;2.58;2.37;;;;;;;22.56;96.82;98355.54;1728197;81;20943;-60
2022/09/16 09:36:24;;;;;;;3.25;2.52;;;;;;;22.56;96.82;98355.54;1727490;81;21842;-60
2022/09/16 09:38:57;;;;;;;2.40;2.20;;;;;;;22.62;96.79;98359.37;1678110;84;21465;-59
2022/09/16 09:41:32;;;;;;;2.33;2.20;;;;;;;22.80;94.85;98360.47;1691261;82;21006;-58
2022/09/16 09:44:32;;;;;;;5.10;2.85;;;;;;;22.94;94.47;98361.05;1682260;84;21553;-60
2022/09/16 09:47:02;;;;;;;2.90;2.70;;;;;;;23.03;93.46;98357.83;1694666;84;21648;-61
2022/09/16 09:49:32;;;;;;;2.42;2.22;;;;;;;;;;1686273;83;21888;-61
2022/09/16 09:52:17;;;;;;;3.12;2.10;;;;;;;23.17;92.42;98365.16;1730575;80;21569;-61
2022/09/16 09:54:49;;;;;;;2.02;1.80;;;;;;;23.30;91.31;98365.40;1725656;80;21428;-60
2022/09/16 09:57:27;;;;;;;3.20;2.45;;;;;;;23.42;90.34;98364.47;1688198;82;21580;-61
2022/09/16 10:00:11;;;;;;;3.77;2.20;;;;;;;23.53;89.74;98360.54;1685069;82;21530;-60
2022/09/16 10:02:43;;;;;;;2.80;2.25;;;;;;;23.65;89.02;98365.78;1722522;80;21753;-62
2022/09/16 10:05:22;;;;;;;3.87;2.00;;;;;;;23.77;86.15;98364.88;1714857;80;21582;-60
2022/09/16 10:07:51;;;;;;;2.95;1.95;;;;;;;23.77;86.15;98364.88;1683355;84;21514;-62
2022/09/16 10:10:23;;;;;;;2.52;1.87;;;;;;;23.88;86.51;98367.15;1688822;82;21533;-62
2022/09/16 10:12:50;;;;;;;4.05;2.20;;;;;;;24.05;85.31;98366.97;1730211;80;21506;-60
2022/09/16 10:15:29;;;;;;;2.72;2.00;;;;;;;24.16;83.89;98359.81;1723755;80;21476;-60
2022/09/16 10:17:58;;;;;;;;;;;;;;;24.14;82.17;98371.24;1732429;80;21541;-59
2022/09/16 10:20:35;;;;;;;2.47;2.27;;;;;;;23.78;74.31;98367.04;1725649;81;20457;-59
2022/09/16 10:23:19;;;;;;;2.10;1.90;;;;;;;23.41;82.52;98365.98;1710080;80;21574;-59
2022/09/16 10:25:46;;;;;;;2.98;2.47;;;;;;;23.10;83.28;98376.25;1688964;84;21530;-60
2022/09/16 10:28:23;;;;;;;6.37;2.20;;;;;;;22.87;82.86;98385.05;1684392;82;21878;-62
2022/09/16 10:30:55;;;;;;;2.22;2.02;;;;;;;22.76;83.02;98385.44;1688168;82;21491;-60
2022/09/16 10:33:35;;;;;;;2.95;2.02;;;;;;;22.67;82.36;98383.28;1679512;84;21540;-60
2022/09/16 10:36:06;;;;;;;3.65;2.30;;;;;;;22.63;82.23;98386.50;1675088;83;21152;-61
2022/09/16 10:38:41;;;;;;;3.05;2.00;;;;;;;22.65;81.48;98390.66;1672473;83;21675;-60
2022/09/16 10:41:20;;;;;;;2.58;2.10;;;;;;;22.82;81.79;98382.05;1677691;83;21772;-60
2022/09/16 10:43:52;;;;;;;2.10;1.87;;;;;;;22.90;79.15;98383.34;1693394;83;21573;-61
2022/09/16 10:46:18;;;;;;;3.60;1.67;;;;;;;22.90;79.15;98383.34;1698626;83;21037;-60
2022/09/16 10:48:47;;;;;;;3.67;2.37;;;;;;;22.78;78.12;98382.59;1699980;83;21560;-60
2022/09/16 10:51:26;;;;;;;2.17;1.98;;;;;;;22.62;78.58;98378.98;1696190;83;21822;-61
2022/09/16 10:53:56;;;;;;;3.50;2.45;;;;;;;22.59;78.48;98373.12;1691541;83;21867;-60
2022/09/16 10:56:28;;;;;;;2.20;2.05;;;;;;;22.96;75.88;98368.92;1699957;83;21505;-60
2022/09/16 10:59:12;;;;;;;4.53;2.50;;;;;;;22.96;75.88;98368.92;1696102;82;21438;-60
2022/09/16 11:02:05;;;;;;;2.00;1.90;;;;;;;23.08;74.77;98363.02;1702293;82;21469;-60
2022/09/16 11:04:53;;;;;;;5.00;2.40;;;;;;;23.15;73.97;98370.34;1620794;88;21637;-60
2022/09/16 11:07:55;;;;;;;5.05;2.37;;;;;;;23.04;74.12;98370.27;1624530;86;21814;-61
2022/09/16 11:10:30;;;;;;;4.03;2.00;;;;;;;22.95;74.92;98380.16;1669446;83;21014;-62
2022/09/16 11:13:08;;;;;;;1.80;1.70;;;;;;;22.87;75.08;98366.30;1691176;83;21109;-61
2022/09/16 11:16:15;;;;;;;2.25;2.08;;;;;;;22.94;75.18;98368.61;1677506;84;21596;-61
2022/09/16 11:18:54;;;;;;;2.12;1.90;;;;;;;23.06;74.21;98374.94;1664530;83;21550;-60
2022/09/16 11:21:46;;;;;;;2.12;1.92;;;;;;;23.06;74.21;98374.94;1673258;83;22063;-60
2022/09/16 11:24:25;;;;;;;2.00;1.90;;;;;;;23.08;74.42;98379.61;1670926;83;21020;-60
2022/09/16 11:27:07;;;;;;;3.00;2.08;;;;;;;23.12;75.07;98373.71;1680609;82;21428;-62
2022/09/16 11:29:45;;;;;;;2.12;1.98;;;;;;;23.19;74.27;98372.52;1693023;83;21589;-62
2022/09/16 11:32:24;;;;;;;5.30;2.40;;;;;;;23.26;74.04;98374.81;1700335;82;21065;-61
2022/09/16 11:35:17;;;;;;;2.52;2.20;;;;;;;23.38;71.54;98366.36;1701495;82;22338;-63
2022/09/16 11:38:12;;;;;;;3.45;2.20;;;;;;;23.38;71.54;98366.36;1704790;82;21517;-66
2022/09/16 11:41:02;;;;;;;2.92;2.65;;;;;;;23.38;70.45;98362.34;1706377;82;21533;-65
2022/09/16 11:44:24;;;;;;;2.72;2.20;;;;;;;23.55;69.16;98352.31;1692157;83;21001;-63
2022/09/16 11:47:16;;;;;;;4.03;2.45;;;;;;;23.63;68.62;98359.77;1739086;80;21388;-62
2022/09/16 11:50:03;;;;;;;2.12;1.92;;;;;;;23.70;66.78;98363.41;1731403;82;21776;-64
2022/09/16 11:52:58;;;;;;;;;;;;;;;23.64;65.21;98357.43;1682266;83;21492;-63
2022/09/16 11:55:42;;;;;;;3.20;2.10;;;;;;;23.59;60.41;98353.10;1626909;84;20446;-62
2022/09/16 11:58:39;;;;;;;2.35;2.15;;;;;;;23.48;65.85;98368.28;1674677;83;21625;-62
2022/09/16 12:01:30;;;;;;;3.30;2.27;;;;;;;23.29;65.61;98378.46;1639802;83;21570;-62
2022/09/16 12:04:11;;;;;;;2.45;2.25;;;;;;;23.11;66.43;98371.20;1673246;82;21915;-63
2022/09/16 12:06:46;;;;;;;2.27;2.08;;;;;;;23.05;67.03;98370.58;1689485;83;21487;-63
2022/09/16 12:09:36;;;;;;;5.20;1.92;;;;;;;22.96;68.02;98383.66;1631480;84;21636;-64